Time;durP1;ratioP1;P1;durP2;ratioP2;P2;SDS_P1;SDS_P2;PMS_P1;PMS_P2;Temp;Humidity;BMP_temperature;BMP_pressure;BME280_temperature;BME280_humidity;BME280_pressure;Samples;Min_cycle;Max_cycle;Signal;HPM_P1;HPM_P2
2022/11/11 00:01:50;;;;;;;4.00;2.37;;;2.70;99.90;2.90;98339.00;;;;5090667;28;20468;-66
2022/11/11 00:04:39;;;;;;;0.93;0.93;;;2.50;99.90;2.80;98357.00;;;;5097721;28;20413;-68
2022/11/11 00:07:28;;;;;;;2.07;1.87;;;2.40;99.90;2.70;98342.00;;;;5108647;28;21011;-66
2022/11/11 00:10:16;;;;;;;4.73;2.30;;;4.40;99.90;3.00;98346.00;;;;5108772;27;20495;-66
2022/11/11 00:13:05;;;;;;;3.67;2.60;;;2.40;99.90;3.30;98352.00;;;;5108639;28;20417;-66
2022/11/11 00:15:54;;;;;;;2.93;2.73;;;2.50;99.90;3.40;98346.00;;;;5103565;28;21009;-67
2022/11/11 00:25:07;;;;;;;1.03;0.97;;;2.40;99.90;2.60;98334.00;;;;5091555;28;20863;-68
2022/11/11 00:27:56;;;;;;;7.20;2.20;;;2.20;99.90;2.90;98337.00;;;;5102779;28;20538;-69
2022/11/11 00:30:44;;;;;;;2.43;2.10;;;2.30;99.90;3.20;98343.00;;;;5110075;28;20969;-67
2022/11/11 00:33:33;;;;;;;1.73;1.63;;;2.40;99.90;3.30;98350.00;;;;5104257;28;20421;-66
2022/11/11 00:36:22;;;;;;;2.90;1.87;;;2.50;99.90;3.10;98348.00;;;;5116848;27;20428;-67
2022/11/11 00:39:11;;;;;;;1.77;1.67;;;2.50;99.90;3.00;98352.00;;;;5107077;28;20445;-66
2022/11/11 00:41:59;;;;;;;2.23;1.63;;;2.50;99.90;3.30;98347.00;;;;5098005;28;20420;-66
2022/11/11 00:44:48;;;;;;;2.73;2.17;;;2.50;99.90;3.60;98342.00;;;;5095573;28;20474;-66
2022/11/11 00:50:58;;;;;;;3.67;2.13;;;2.80;99.90;3.90;98341.00;;;;5103935;27;20964;-67
2022/11/11 00:53:48;;;;;;;5.37;2.27;;;2.90;99.90;2.70;98325.00;;;;5105478;28;20425;-67
2022/11/11 00:56:37;;;;;;;5.20;1.50;;;2.70;99.90;2.80;98320.00;;;;5110366;28;20931;-70
2022/11/11 00:59:27;;;;;;;1.10;1.10;;;2.50;99.90;2.80;98319.00;;;;5100694;28;20444;-66
2022/11/11 01:02:15;;;;;;;2.63;2.43;;;2.50;99.90;3.40;98323.00;;;;5107912;28;20445;-67
2022/11/11 01:05:05;;;;;;;2.57;2.37;;;2.50;99.90;3.80;98322.00;;;;5103247;28;20432;-67
2022/11/11 01:07:54;;;;;;;2.47;2.27;;;;;3.50;98311.00;;;;5107757;28;20943;-67
2022/11/11 01:10:46;;;;;;;3.43;1.80;;;2.70;99.90;2.80;98308.00;;;;5110395;28;20466;-66
2022/11/11 01:13:35;;;;;;;3.63;1.97;;;2.50;99.90;2.70;98301.00;;;;5111208;28;20425;-69
2022/11/11 01:16:27;;;;;;;4.60;2.07;;;2.40;99.90;2.60;98306.00;;;;5107454;28;20690;-66
2022/11/11 01:19:15;;;;;;;6.87;2.50;;;2.30;99.90;3.20;98300.00;;;;5100806;28;20830;-67
2022/11/11 01:22:04;;;;;;;4.10;2.63;;;;;3.60;98294.00;;;;5110830;28;21040;-66
2022/11/11 01:24:53;;;;;;;2.77;2.53;;;2.50;99.90;3.80;98292.00;;;;5105009;28;20417;-66
2022/11/11 01:27:43;;;;;;;1.90;1.80;;;2.70;99.90;3.30;98282.00;;;;5103581;28;20427;-67
2022/11/11 01:30:33;;;;;;;2.60;2.07;;;2.80;99.90;2.80;98288.00;;;;5110912;28;20424;-66
2022/11/11 01:33:22;;;;;;;4.53;1.87;;;2.50;99.90;2.80;98275.00;;;;5106498;27;20936;-66
2022/11/11 01:36:13;;;;;;;2.30;2.20;;;2.40;99.90;2.70;98278.00;;;;5108984;28;20413;-67
2022/11/11 01:39:03;;;;;;;3.83;2.70;;;2.30;99.90;2.50;98282.00;;;;5107451;27;20436;-69
2022/11/11 01:41:52;;;;;;;3.30;2.07;;;2.20;99.90;2.70;98274.00;;;;5109052;28;20429;-65
2022/11/11 01:44:45;;;;;;;2.87;2.47;;;2.20;99.90;3.00;98279.00;;;;5104243;28;20939;-66
2022/11/11 01:50:58;;;;;;;3.13;1.57;;;2.20;99.90;2.50;98287.00;;;;5101162;28;20974;-66
2022/11/11 01:53:54;;;;;;;3.10;2.17;;;2.10;99.90;2.90;98287.00;;;;5110527;28;20417;-66
2022/11/11 01:56:47;;;;;;;2.50;2.30;;;2.10;99.90;3.20;98275.00;;;;5109121;28;20789;-66
2022/11/11 01:59:41;;;;;;;4.30;3.60;;;2.10;99.90;3.40;98283.00;;;;5109601;28;20447;-66
2022/11/11 02:02:39;;;;;;;4.83;3.10;;;2.30;99.90;3.50;98283.00;;;;5101451;28;20799;-66
2022/11/11 02:05:44;;;;;;;4.57;3.43;;;2.70;99.90;3.50;98287.00;;;;5109125;27;20803;-66
2022/11/11 02:08:35;;;;;;;3.80;2.80;;;2.60;99.90;3.30;98290.00;;;;5103299;28;20443;-66
2022/11/11 02:14:35;;;;;;;2.27;2.07;;;2.40;99.90;2.60;98279.00;;;;5089646;28;20417;-67
2022/11/11 02:17:28;;;;;;;1.67;1.53;;;2.20;99.90;2.50;98295.00;;;;5088671;28;20468;-68
2022/11/11 02:20:21;;;;;;;1.80;1.67;;;2.10;99.90;2.40;98282.00;;;;5088754;28;20438;-65
2022/11/11 02:23:15;;;;;;;1.73;1.63;;;2.00;99.90;2.80;98283.00;;;;5098124;28;20500;-66
2022/11/11 02:26:07;;;;;;;7.83;2.13;;;2.00;99.90;3.30;98292.00;;;;5099375;28;20420;-67
2022/11/11 02:28:56;;;;;;;4.87;2.80;;;2.10;99.90;3.50;98285.00;;;;5089244;28;20887;-67
2022/11/11 02:31:45;;;;;;;3.00;2.47;;;2.30;99.90;3.60;98303.00;;;;5105009;28;20465;-67
2022/11/11 02:34:35;;;;;;;1.83;1.73;;;2.60;99.90;2.80;98287.00;;;;5102768;28;20500;-69
2022/11/11 02:37:26;;;;;;;1.67;1.57;;;2.30;99.90;2.40;98299.00;;;;5097586;28;20472;-66
2022/11/11 02:40:19;;;;;;;3.97;2.27;;;2.10;99.90;2.50;98288.00;;;;5090789;28;20438;-66
2022/11/11 02:43:09;;;;;;;2.97;2.27;;;2.00;99.90;3.00;98302.00;;;;5089357;28;20425;-65
2022/11/11 02:45:58;;;;;;;3.37;3.07;;;2.10;99.90;3.40;98303.00;;;;5090191;28;20421;-66
2022/11/11 02:48:47;;;;;;;6.70;2.97;;;2.50;99.90;3.30;98298.00;;;;5100761;28;20440;-66
2022/11/11 02:51:36;;;;;;;4.07;2.40;;;2.40;99.90;2.60;98301.00;;;;5113663;28;20503;-66
2022/11/11 02:54:25;;;;;;;2.70;2.50;;;2.20;99.90;2.80;98304.00;;;;5113102;28;20919;-66
2022/11/11 02:57:14;;;;;;;3.93;2.93;;;2.20;99.90;3.10;98317.00;;;;5113773;28;20425;-66
2022/11/11 03:00:06;;;;;;;5.00;2.93;;;2.20;99.90;3.00;98314.00;;;;5110562;28;20486;-66
2022/11/11 03:02:54;;;;;;;4.90;3.77;;;2.20;99.90;2.70;98312.00;;;;5110598;28;20449;-66
2022/11/11 03:05:43;;;;;;;6.33;3.53;;;2.10;99.90;3.10;98331.00;;;;5113409;27;20423;-67
2022/11/11 03:08:32;;;;;;;3.67;3.07;;;2.10;99.90;3.50;98319.00;;;;5104909;28;20441;-68
2022/11/11 03:11:26;;;;;;;7.23;5.53;;;2.30;99.90;3.70;98334.00;;;;5098795;28;20433;-66
2022/11/11 03:14:15;;;;;;;4.97;3.20;;;2.50;99.90;3.20;98323.00;;;;5113369;28;21219;-66
2022/11/11 03:23:21;;;;;;;12.50;3.53;;;2.30;99.90;2.80;98313.00;;;;5111525;28;20435;-66
2022/11/11 03:26:09;;;;;;;4.53;2.33;;;2.20;99.90;2.80;98310.00;;;;5110379;28;20797;-67
2022/11/11 03:28:58;;;;;;;5.97;3.87;;;2.20;99.90;2.60;98316.00;;;;5100854;28;20457;-67
2022/11/11 03:31:47;;;;;;;4.03;3.53;;;2.10;99.90;2.90;98326.00;;;;5093799;28;20434;-67
2022/11/11 03:34:37;;;;;;;8.30;4.47;;;2.10;99.90;3.30;98320.00;;;;5104789;28;20497;-66
2022/11/11 03:40:32;;;;;;;7.30;5.07;;;2.30;99.90;3.10;98322.00;;;;5112071;28;20440;-66
2022/11/11 03:43:23;;;;;;;11.20;5.30;;;2.30;99.90;3.00;98320.00;;;;5112780;28;20467;-66
2022/11/11 03:46:12;;;;;;;4.30;3.90;;;;;2.80;98301.00;;;;5100333;28;20424;-66
2022/11/11 03:49:01;;;;;;;5.43;3.17;;;2.30;99.90;2.70;98317.00;;;;5111409;28;20863;-67
2022/11/11 03:51:51;;;;;;;3.80;3.40;;;2.20;99.90;2.40;98318.00;;;;5112720;27;20436;-67
2022/11/11 03:54:40;;;;;;;8.10;4.63;;;2.10;99.90;2.70;98316.00;;;;5105764;28;20422;-66
2022/11/11 03:57:32;;;;;;;8.07;6.07;;;2.10;99.90;3.20;98322.00;;;;5091280;28;20494;-66
2022/11/11 04:00:24;;;;;;;8.27;5.63;;;2.30;99.90;3.40;98327.00;;;;5090624;28;20430;-66
2022/11/11 04:16:04;;;;;;;5.80;4.70;;;2.30;99.90;3.10;98325.00;;;;5111535;28;20442;-67
2022/11/11 04:21:56;;;;;;;7.67;5.10;;;2.20;99.90;3.10;98333.00;;;;5091988;28;20491;-67
2022/11/11 04:30:59;;;;;;;5.77;5.13;;;2.60;99.90;3.40;98343.00;;;;5095498;28;20474;-66
2022/11/11 04:33:47;;;;;;;8.03;5.13;;;2.50;99.90;3.20;98342.00;;;;5111727;28;20416;-66
2022/11/11 04:36:36;;;;;;;8.40;5.93;;;2.70;99.90;3.30;98358.00;;;;5099418;27;20894;-66
2022/11/11 04:42:34;;;;;;;7.10;5.97;;;2.40;99.90;3.10;98351.00;;;;5111070;28;20854;-67
2022/11/11 04:45:29;;;;;;;8.77;5.83;;;2.60;99.90;3.20;98362.00;;;;5111005;28;20420;-66
2022/11/11 04:48:19;;;;;;;9.93;4.87;;;;;3.20;98356.00;;;;5110815;28;20464;-66
2022/11/11 04:51:08;;;;;;;5.27;4.10;;;;;3.10;98348.00;;;;5110896;28;20425;-67
2022/11/11 04:53:57;;;;;;;7.83;6.83;;;2.30;99.90;3.30;98361.00;;;;5111514;28;20470;-67
2022/11/11 04:56:49;;;;;;;8.10;5.07;;;2.30;99.90;3.20;98358.00;;;;5095269;28;20436;-66
2022/11/11 04:59:39;;;;;;;10.37;6.57;;;2.40;99.90;3.30;98356.00;;;;5090358;28;20883;-67
2022/11/11 05:08:54;;;;;;;10.53;5.67;;;2.50;99.90;3.30;98366.00;;;;5103564;28;20479;-66
2022/11/11 05:08:55;;;;;;;8.60;6.23;;;2.60;99.90;3.40;98377.00;;;;5088965;28;20938;-67
2022/11/11 05:11:44;;;;;;;5.67;5.07;;;2.50;99.90;3.40;98360.00;;;;5102544;28;20811;-67
2022/11/11 05:27:03;;;;;;;10.20;5.60;;;2.50;99.90;3.50;98374.00;;;;5102898;28;20529;-67
2022/11/11 05:29:51;;;;;;;6.30;5.17;;;2.70;99.90;3.50;98367.00;;;;5112326;27;20982;-67
2022/11/11 05:32:42;;;;;;;7.03;6.23;;;2.50;99.90;3.30;98378.00;;;;5105700;28;20801;-66
2022/11/11 05:35:31;;;;;;;10.90;6.03;;;2.50;99.90;3.40;98387.00;;;;5107628;27;20424;-67
2022/11/11 05:38:20;;;;;;;6.90;5.53;;;2.70;99.90;3.50;98386.00;;;;5117549;27;20456;-66
2022/11/11 05:41:09;;;;;;;8.50;6.27;;;2.60;99.90;3.70;98384.00;;;;5111557;27;20474;-66
2022/11/11 05:43:58;;;;;;;5.57;4.93;;;2.60;99.90;3.50;98383.00;;;;5107161;27;20425;-67
2022/11/11 05:46:46;;;;;;;8.53;6.90;;;2.60;99.90;3.50;98392.00;;;;5113320;27;20519;-66
2022/11/11 05:49:37;;;;;;;14.13;9.47;;;2.80;99.90;3.70;98388.00;;;;5107054;27;20440;-67
2022/11/11 05:52:25;;;;;;;12.27;8.10;;;2.70;99.90;3.80;98413.00;;;;5094628;28;20425;-66
2022/11/11 05:55:14;;;;;;;10.03;7.00;;;2.80;99.90;3.20;98394.00;;;;5108299;28;20424;-65
2022/11/11 05:58:03;;;;;;;7.27;6.23;;;2.70;99.90;3.60;98402.00;;;;5114707;27;20439;-66
2022/11/11 06:00:51;;;;;;;10.47;6.90;;;2.80;99.90;3.70;98409.00;;;;5116380;27;21145;-66
2022/11/11 06:03:40;;;;;;;9.40;7.43;;;2.70;99.90;3.90;98411.00;;;;5112729;27;20421;-66
2022/11/11 06:06:30;;;;;;;7.77;6.77;;;2.80;99.90;3.80;98409.00;;;;5106433;28;20428;-66
2022/11/11 06:09:19;;;;;;;9.93;7.03;;;2.90;99.90;3.70;98417.00;;;;5093102;28;20987;-66
2022/11/11 06:12:08;;;;;;;8.10;6.63;;;2.80;99.90;3.50;98417.00;;;;5111012;27;20467;-66
2022/11/11 06:14:57;;;;;;;7.13;5.90;;;2.80;99.90;3.40;98423.00;;;;5108753;28;20417;-67
2022/11/11 06:17:45;;;;;;;11.40;6.87;;;2.70;99.90;3.60;98418.00;;;;5109479;28;20501;-67
2022/11/11 06:20:35;;;;;;;11.10;8.37;;;2.70;99.90;3.80;98429.00;;;;5110014;27;20452;-67
2022/11/11 06:23:27;;;;;;;16.47;9.93;;;2.80;99.90;3.90;98431.00;;;;5110213;27;20428;-66
2022/11/11 06:26:16;;;;;;;12.67;8.37;;;;;3.90;98432.00;;;;5107585;27;20428;-66
2022/11/11 06:29:04;;;;;;;7.63;6.27;;;2.90;99.90;3.80;98440.00;;;;5107634;27;21010;-66
2022/11/11 06:31:54;;;;;;;8.23;6.03;;;2.90;99.90;4.10;98439.00;;;;5116053;28;21179;-65
2022/11/11 06:34:43;;;;;;;10.73;5.80;;;3.00;99.90;3.90;98438.00;;;;5109292;28;20470;-66
2022/11/11 06:37:31;;;;;;;12.63;6.90;;;3.00;99.90;4.20;98444.00;;;;5105479;28;20483;-66
2022/11/11 06:40:23;;;;;;;10.70;6.37;;;3.10;99.90;4.30;98437.00;;;;5106007;28;20473;-66
2022/11/11 06:43:12;;;;;;;6.03;5.43;;;3.20;99.90;4.30;98441.00;;;;5101814;28;20436;-66
2022/11/11 06:46:00;;;;;;;7.90;6.53;;;3.20;99.90;4.40;98453.00;;;;5116899;28;20533;-66
2022/11/11 06:48:49;;;;;;;8.63;6.73;;;3.30;99.90;4.40;98452.00;;;;5114294;28;20530;-66
2022/11/11 06:51:38;;;;;;;9.13;6.30;;;3.30;99.90;4.50;98441.00;;;;5101342;28;20440;-66
2022/11/11 06:54:27;;;;;;;4.87;4.37;;;3.40;99.90;4.20;98439.00;;;;5106996;28;20441;-67
2022/11/11 06:57:17;;;;;;;6.37;5.53;;;3.40;99.90;4.20;98449.00;;;;5116367;28;20419;-67
2022/11/11 07:00:07;;;;;;;7.67;6.13;;;3.40;99.90;4.30;98442.00;;;;5104058;28;20499;-67
2022/11/11 07:02:56;;;;;;;11.23;7.83;;;3.40;99.90;4.40;98451.00;;;;5103371;28;20511;-67
2022/11/11 07:05:45;;;;;;;17.27;7.87;;;3.40;99.90;4.50;98454.00;;;;5105484;28;20439;-67
2022/11/11 07:08:34;;;;;;;7.30;6.07;;;3.40;99.90;4.40;98453.00;;;;5098845;28;20517;-66
2022/11/11 07:11:23;;;;;;;8.97;6.20;;;3.50;99.90;4.00;98453.00;;;;5109022;28;20421;-67
2022/11/11 07:14:13;;;;;;;10.17;6.87;;;4.90;99.90;4.40;98449.00;;;;5109315;28;20425;-66
2022/11/11 07:17:02;;;;;;;7.77;6.80;;;3.40;99.90;4.60;98460.00;;;;5107452;28;21297;-66
2022/11/11 07:19:53;;;;;;;9.77;7.70;;;3.50;99.90;4.80;98465.00;;;;5106735;28;20472;-66
2022/11/11 07:22:42;;;;;;;7.30;5.77;;;3.60;99.90;4.70;98458.00;;;;5105568;28;20443;-66
2022/11/11 07:25:30;;;;;;;6.03;5.30;;;3.70;99.90;4.50;98450.00;;;;5099350;28;21790;-66
2022/11/11 07:28:19;;;;;;;6.17;5.50;;;3.60;99.90;4.40;98457.00;;;;5103492;28;20454;-66
2022/11/11 07:31:09;;;;;;;8.63;5.63;;;3.60;99.90;4.30;98462.00;;;;5107901;28;20425;-66
2022/11/11 07:33:58;;;;;;;5.83;4.83;;;3.60;99.90;4.00;98446.00;;;;5111258;28;21023;-67
2022/11/11 07:36:46;;;;;;;6.23;4.80;;;3.50;99.90;4.20;98444.00;;;;5103657;27;20872;-67
2022/11/11 07:39:35;;;;;;;6.57;5.17;;;3.50;99.90;4.30;98451.00;;;;5104153;28;20488;-67
2022/11/11 07:42:24;;;;;;;10.00;5.43;;;3.60;99.90;4.50;98453.00;;;;5095173;28;20444;-68
2022/11/11 07:45:19;;;;;;;6.97;5.47;;;3.60;99.90;4.60;98449.00;;;;5107535;28;20420;-66
2022/11/11 07:48:09;;;;;;;6.93;5.33;;;3.50;99.90;4.30;98457.00;;;;5110375;28;20417;-65
2022/11/11 07:50:59;;;;;;;7.17;5.23;;;3.70;99.90;4.40;98466.00;;;;5105776;28;20465;-65
2022/11/11 07:53:48;;;;;;;4.13;3.70;;;3.70;99.90;4.40;98468.00;;;;5110136;28;20574;-67
2022/11/11 07:56:36;;;;;;;7.30;5.67;;;3.80;99.90;4.70;98453.00;;;;5111850;28;20763;-66
2022/11/11 07:59:25;;;;;;;10.90;7.13;;;3.80;99.90;4.90;98466.00;;;;5111825;28;20930;-66
2022/11/11 08:02:14;;;;;;;10.00;6.67;;;3.90;99.90;5.00;98476.00;;;;5100558;28;20455;-66
2022/11/11 08:05:05;;;;;;;6.57;5.77;;;4.00;99.90;5.00;98475.00;;;;5109375;28;20477;-66
2022/11/11 08:07:54;;;;;;;6.37;5.70;;;4.10;99.90;5.20;98480.00;;;;5104244;28;20417;-67
2022/11/11 08:10:42;;;;;;;7.33;5.63;;;4.20;99.90;5.20;98461.00;;;;5105454;28;20506;-66
2022/11/11 08:13:39;;;;;;;9.13;6.17;;;4.30;99.90;5.60;98469.00;;;;5099539;28;20408;-67
2022/11/11 08:16:28;;;;;;;7.43;4.40;;;4.40;99.90;5.70;98473.00;;;;5102224;28;20512;-66
2022/11/11 08:19:16;;;;;;;12.23;7.13;;;4.50;99.90;5.40;98468.00;;;;5110261;28;20215;-66
2022/11/11 08:22:06;;;;;;;5.70;4.90;;;4.60;99.90;5.80;98478.00;;;;5109744;27;20197;-68
2022/11/11 08:24:55;;;;;;;7.03;5.90;;;4.70;99.90;6.20;98472.00;;;;5103842;28;20196;-66
2022/11/11 08:27:50;;;;;;;8.90;8.00;;;4.90;99.90;6.40;98470.00;;;;5104561;28;20191;-67
2022/11/11 08:30:38;;;;;;;9.00;7.83;;;5.10;99.90;6.40;98477.00;;;;5091674;28;20268;-66
2022/11/11 08:33:28;;;;;;;7.47;6.77;;;5.30;99.90;6.80;98468.00;;;;5110667;28;20198;-65
2022/11/11 08:36:23;;;;;;;7.77;6.60;;;5.50;99.90;7.20;98469.00;;;;5099711;27;20595;-66
2022/11/11 08:39:14;;;;;;;7.77;7.07;;;5.80;99.90;7.40;98469.00;;;;5108903;28;20250;-66
2022/11/11 08:42:02;;;;;;;8.70;7.80;;;6.00;99.90;7.90;98476.00;;;;5111991;28;20258;-66
2022/11/11 08:44:51;;;;;;;6.93;6.33;;;6.20;99.90;8.20;98485.00;;;;5109806;28;20194;-66
2022/11/11 08:47:44;;;;;;;10.83;7.17;;;6.50;99.90;8.20;98481.00;;;;5101314;28;20255;-66
2022/11/11 08:50:33;;;;;;;8.80;7.77;;;6.60;99.90;8.30;98495.00;;;;5097273;28;20232;-66
2022/11/11 08:53:21;;;;;;;8.83;6.90;;;6.80;99.90;8.40;98488.00;;;;5111979;27;20279;-66
2022/11/11 08:56:12;;;;;;;6.80;5.77;;;6.90;99.90;8.40;98483.00;;;;5106671;28;20624;-66
2022/11/11 08:59:00;;;;;;;8.27;7.43;;;7.00;99.90;8.40;98477.00;;;;5105714;28;20214;-66
2022/11/11 09:01:49;;;;;;;7.07;6.37;;;7.10;99.90;8.70;98485.00;;;;5101511;28;20219;-66
2022/11/11 09:04:38;;;;;;;8.80;7.87;;;7.20;99.90;8.90;98484.00;;;;5103279;28;20195;-66
2022/11/11 09:07:35;;;;;;;7.63;6.53;;;7.40;99.90;9.10;98489.00;;;;5097633;28;20190;-66
2022/11/11 09:10:24;;;;;;;8.80;6.73;;;7.50;99.90;9.20;98489.00;;;;5101802;28;20195;-66
2022/11/11 09:13:14;;;;;;;6.57;5.90;;;7.60;99.90;9.40;98489.00;;;;5103903;28;20253;-66
2022/11/11 09:16:03;;;;;;;6.00;5.43;;;7.80;99.90;9.80;98499.00;;;;5110231;27;20528;-66
2022/11/11 09:18:51;;;;;;;16.63;13.63;;;8.00;99.90;9.90;98491.00;;;;5105485;28;20716;-66
2022/11/11 09:21:40;;;;;;;11.63;10.10;;;8.10;99.90;10.20;98493.00;;;;5095966;28;20218;-66
2022/11/11 09:24:29;;;;;;;8.63;7.87;;;8.30;99.90;10.50;98486.00;;;;5102572;28;21027;-66
2022/11/11 09:27:17;;;;;;;6.50;5.83;;;8.50;99.90;10.50;98492.00;;;;5103777;28;20756;-66
2022/11/11 09:30:10;;;;;;;7.40;6.70;;;8.70;99.90;10.70;98492.00;;;;5099936;28;20235;-66
2022/11/11 09:33:02;;;;;;;6.77;6.17;;;8.80;99.90;10.90;98495.00;;;;5103797;28;20279;-66
2022/11/11 09:35:51;;;;;;;6.63;5.70;;;8.90;99.90;11.00;98506.00;;;;5106333;28;20244;-66
2022/11/11 09:38:39;;;;;;;6.33;4.90;;;9.10;99.90;11.00;98503.00;;;;5109888;28;20794;-66
2022/11/11 09:41:42;;;;;;;6.80;5.90;;;9.20;99.90;11.10;98503.00;;;;5105902;28;20702;-66
2022/11/11 09:45:02;;;;;;;5.73;5.20;;;9.30;99.90;11.40;98510.00;;;;5101641;28;20195;-66
2022/11/11 09:48:02;;;;;;;6.83;6.13;;;8.70;99.90;10.70;98506.00;;;;5102832;28;20377;-66
2022/11/11 09:50:57;;;;;;;5.37;4.87;;;9.50;99.90;11.30;98505.00;;;;5097385;28;20412;-66
2022/11/11 09:53:53;;;;;;;5.72;5.22;;;8.90;99.90;11.20;98509.00;;;;5107687;28;20381;-66
2022/11/11 09:56:41;;;;;;;5.80;5.27;;;9.50;99.90;11.60;98504.00;;;;5108190;28;20376;-66
2022/11/11 09:59:41;;;;;;;5.17;4.67;;;9.90;99.90;12.00;98504.00;;;;5109762;28;20225;-66
2022/11/11 10:02:38;;;;;;;6.00;4.77;;;10.00;99.90;12.20;98506.00;;;;5109405;28;20249;-66
2022/11/11 10:05:37;;;;;;;5.20;4.40;;;10.20;99.90;12.50;98500.00;;;;5109888;28;20198;-66
2022/11/11 10:08:29;;;;;;;6.03;4.63;;;10.40;99.90;12.50;98499.00;;;;5108770;28;20775;-66
2022/11/11 10:11:27;;;;;;;4.43;3.80;;;10.60;99.90;12.60;98501.00;;;;5098728;28;20242;-66
2022/11/11 10:14:16;;;;;;;5.80;3.80;;;10.70;99.90;12.90;98502.00;;;;5109831;28;20199;-66
2022/11/11 10:17:19;;;;;;;4.77;4.17;;;10.90;99.90;12.80;98503.00;;;;5110070;27;20280;-66
2022/11/11 10:20:20;;;;;;;5.47;3.43;;;11.20;99.90;12.90;98503.00;;;;5105132;28;20214;-66
2022/11/11 10:23:15;;;;;;;5.23;4.20;;;11.40;99.90;12.90;98506.00;;;;5109704;28;20228;-66
2022/11/11 10:26:13;;;;;;;5.00;4.20;;;11.40;99.90;12.50;98513.00;;;;5105942;28;20194;-66
2022/11/11 10:29:03;;;;;;;6.37;4.23;;;11.40;99.90;12.70;98509.00;;;;5089187;28;20335;-66
2022/11/11 10:32:09;;;;;;;5.23;4.40;;;11.40;99.90;12.60;98513.00;;;;5100037;28;20194;-66
2022/11/11 10:35:14;;;;;;;6.57;4.40;;;11.30;99.90;12.60;98504.00;;;;5093433;28;20785;-67
2022/11/11 10:38:21;;;;;;;4.47;4.10;;;11.30;99.90;12.70;98509.00;;;;5104748;28;20190;-67
2022/11/11 10:41:18;;;;;;;5.73;4.30;;;11.20;99.90;12.70;98507.00;;;;5090607;28;20226;-67
2022/11/11 10:44:26;;;;;;;4.33;3.93;;;11.30;99.90;12.50;98500.00;;;;5099989;28;20908;-67
2022/11/11 10:47:24;;;;;;;5.57;4.07;;;11.20;99.90;12.70;98491.00;;;;5089114;28;20670;-67
2022/11/11 10:50:19;;;;;;;5.17;4.03;;;11.30;99.90;13.10;98499.00;;;;5088672;28;20719;-67
2022/11/11 10:53:17;;;;;;;4.07;3.67;;;11.30;99.90;13.10;98493.00;;;;5090222;28;20694;-67
2022/11/11 10:56:16;;;;;;;4.77;3.93;;;11.40;99.90;13.00;98487.00;;;;5088944;28;20199;-66
2022/11/11 10:59:15;;;;;;;7.03;3.80;;;11.40;99.90;12.90;98491.00;;;;5097515;28;20641;-66
2022/11/11 11:02:11;;;;;;;4.80;4.33;;;11.40;99.90;12.70;98488.00;;;;5109024;28;20226;-66
2022/11/11 11:05:08;;;;;;;7.17;4.67;;;11.40;99.90;12.70;98482.00;;;;5108519;28;20291;-66
2022/11/11 11:08:02;;;;;;;4.53;4.13;;;11.30;99.90;12.70;98489.00;;;;5112617;28;20750;-67
2022/11/11 11:10:57;;;;;;;4.47;4.17;;;11.20;99.90;12.80;98494.00;;;;5108055;27;20195;-66
2022/11/11 11:13:51;;;;;;;3.93;3.40;;;11.20;99.90;12.70;98486.00;;;;5105593;28;20191;-66
2022/11/11 11:16:43;;;;;;;5.73;4.13;;;11.20;99.90;12.40;98480.00;;;;5113082;27;20283;-67
2022/11/11 11:19:32;;;;;;;4.17;3.67;;;11.10;99.90;12.40;98485.00;;;;5102162;28;20280;-67
2022/11/11 11:22:21;;;;;;;9.40;4.47;;;10.90;99.90;12.50;98473.00;;;;5106287;28;20575;-67
2022/11/11 11:25:12;;;;;;;5.53;4.33;;;10.90;99.90;12.20;98483.00;;;;5102913;28;20206;-67
2022/11/11 11:28:10;;;;;;;4.17;3.77;;;10.80;99.90;11.90;98478.00;;;;5111784;28;20900;-67
2022/11/11 11:31:01;;;;;;;4.80;3.47;;;10.80;99.90;12.10;98480.00;;;;5109994;27;20247;-67
2022/11/11 11:33:53;;;;;;;7.07;4.37;;;10.70;99.90;12.00;98482.00;;;;5115900;27;20279;-67
2022/11/11 11:36:42;;;;;;;4.57;4.17;;;10.70;99.90;12.20;98481.00;;;;5110591;28;20202;-67
2022/11/11 11:39:35;;;;;;;4.87;4.40;;;10.60;99.90;12.20;98485.00;;;;5092628;28;20996;-67
2022/11/11 11:42:32;;;;;;;4.53;4.13;;;10.70;99.90;12.50;98482.00;;;;5107567;28;20235;-67
2022/11/11 11:45:25;;;;;;;6.47;4.40;;;10.80;99.90;12.70;98484.00;;;;5100148;28;20230;-67
2022/11/11 11:48:27;;;;;;;3.53;3.30;;;10.90;99.90;12.80;98473.00;;;;5108037;28;20252;-67
2022/11/11 11:51:29;;;;;;;4.50;4.10;;;11.00;99.90;13.00;98470.00;;;;5102779;28;20202;-67
2022/11/11 11:54:50;;;;;;;4.40;4.00;;;11.20;99.90;13.60;98467.00;;;;5098501;28;20207;-67
2022/11/11 11:57:56;;;;;;;3.67;3.37;;;12.50;99.90;14.30;98469.00;;;;5100532;27;20206;-68
2022/11/11 12:00:59;;;;;;;5.50;4.10;;;11.90;99.90;14.70;98467.00;;;;5103862;28;20244;-68
2022/11/11 12:04:38;;;;;;;4.73;3.30;;;12.40;99.90;14.80;98465.00;;;;5098820;28;20213;-68
2022/11/11 12:08:01;;;;;;;5.23;3.20;;;12.90;99.90;15.10;98441.00;;;;5099124;28;20210;-68
2022/11/11 12:10:57;;;;;;;4.37;3.97;;;13.20;99.90;16.60;98452.00;;;;5108948;27;20569;-67
2022/11/11 12:14:04;;;;;;;5.03;3.57;;;13.80;99.90;16.50;98448.00;;;;5110096;27;20210;-67
2022/11/11 12:17:02;;;;;;;3.60;3.30;;;14.50;99.90;16.70;98458.00;;;;5099875;28;20693;-68
2022/11/11 12:20:02;;;;;;;3.97;3.67;;;14.80;99.90;15.70;98465.00;;;;5104449;28;20667;-67
2022/11/11 12:23:07;;;;;;;4.03;3.17;;;14.90;99.90;15.80;98463.00;;;;5106328;28;20250;-68
2022/11/11 12:26:08;;;;;;;3.43;2.83;;;14.70;99.90;16.10;98458.00;;;;5102105;28;20669;-67
2022/11/11 12:29:24;;;;;;;4.10;3.50;;;14.60;99.90;16.70;98453.00;;;;5105411;27;20647;-68
2022/11/11 12:32:38;;;;;;;3.40;3.10;;;14.60;99.90;16.60;98461.00;;;;5106912;27;20207;-68
2022/11/11 12:35:49;;;;;;;3.27;2.97;;;14.70;99.90;15.90;98453.00;;;;5100337;28;20694;-68
2022/11/11 12:38:56;;;;;;;3.93;3.40;;;14.60;99.90;15.70;98447.00;;;;5102305;28;20305;-67
2022/11/11 12:41:59;;;;;;;5.53;3.63;;;14.30;99.90;15.20;98437.00;;;;5095267;27;20194;-68
2022/11/11 12:44:56;;;;;;;7.47;3.70;;;14.10;99.90;15.00;98428.00;;;;5105185;28;20203;-67
2022/11/11 12:47:56;;;;;;;4.10;3.70;;;13.80;99.90;16.60;98413.00;;;;5100653;28;20234;-67
2022/11/11 12:50:51;;;;;;;3.97;3.40;;;14.00;99.90;16.90;98429.00;;;;5109220;28;20199;-67
2022/11/11 12:53:53;;;;;;;5.30;4.00;;;14.30;99.90;16.00;98434.00;;;;5111370;28;20206;-67
2022/11/11 12:56:51;;;;;;;5.20;3.57;;;14.70;99.90;15.70;98436.00;;;;5119629;27;20250;-67
2022/11/11 13:00:04;;;;;;;4.60;3.97;;;14.60;99.90;15.80;98436.00;;;;5103726;28;20657;-67
2022/11/11 13:03:12;;;;;;;4.77;4.00;;;14.50;99.90;15.90;98427.00;;;;5103423;28;20253;-67
2022/11/11 13:06:18;;;;;;;9.57;3.73;;;14.40;99.90;16.40;98396.00;;;;5111307;28;20241;-67
2022/11/11 13:09:41;;;;;;;4.07;3.67;;;14.50;99.90;17.40;98413.00;;;;5110149;28;20689;-67
2022/11/11 13:12:38;;;;;;;3.97;3.47;;;15.00;99.90;16.90;98424.00;;;;5110285;28;20264;-68
2022/11/11 13:15:28;;;;;;;3.67;3.23;;;15.40;99.90;17.30;98431.00;;;;5111124;28;20206;-67
2022/11/11 13:18:25;;;;;;;4.07;3.33;;;15.70;99.90;16.90;98401.00;;;;5110322;28;20226;-67
2022/11/11 13:21:19;;;;;;;3.60;2.93;;;15.80;99.90;17.10;98418.00;;;;5100870;28;20214;-67
2022/11/11 13:24:12;;;;;;;3.57;3.13;;;16.00;99.90;17.10;98386.00;;;;5107388;28;20376;-68
2022/11/11 13:27:05;;;;;;;5.40;2.97;;;15.90;99.90;17.10;98440.00;;;;5105690;28;20202;-68
2022/11/11 13:30:41;;;;;;;5.23;3.77;;;16.10;99.80;15.70;98423.00;;;;5099241;27;20242;-67
2022/11/11 13:33:41;;;;;;;7.10;3.77;;;15.70;99.70;14.90;98429.00;;;;5091702;28;20585;-68
2022/11/11 13:36:39;;;;;;;6.00;4.17;;;14.90;99.70;15.40;98422.00;;;;5097568;28;20198;-68
2022/11/11 13:39:31;;;;;;;4.27;3.87;;;14.50;99.90;15.60;98403.00;;;;5105603;28;20222;-68
2022/11/11 13:42:27;;;;;;;4.63;3.87;;;14.30;99.90;15.60;98412.00;;;;5105234;28;20219;-67
2022/11/11 13:45:26;;;;;;;3.50;3.13;;;14.20;99.90;15.40;98424.00;;;;5105230;27;20210;-67
2022/11/11 13:48:34;;;;;;;3.60;3.27;;;14.20;99.90;14.50;98408.00;;;;5109134;27;20209;-67
2022/11/11 13:51:30;;;;;;;4.17;3.77;;;13.90;99.90;14.30;98411.00;;;;5106761;27;20248;-68
2022/11/11 13:54:26;;;;;;;3.63;3.33;;;13.50;99.90;14.60;98427.00;;;;5099647;22;20304;-85
2022/11/11 13:57:22;;;;;;;3.70;3.40;;;13.30;99.90;13.10;98413.00;;;;5057135;28;20230;-85
2022/11/11 14:00:28;;;;;;;5.70;4.13;;;12.80;99.90;12.60;98415.00;;;;5062262;28;20726;-85
2022/11/11 14:03:37;;;;;;;4.47;3.97;;;12.30;99.90;13.00;98430.00;;;;5047350;28;20239;-85
2022/11/11 14:06:54;;;;;;;4.17;3.87;;;12.00;99.90;13.30;98425.00;;;;5044967;28;20209;-85
2022/11/11 14:10:01;;;;;;;3.90;3.50;;;11.90;99.90;12.60;98424.00;;;;5043820;28;20208;-85